Time;durP1;ratioP1;P1;durP2;ratioP2;P2;SDS_P1;SDS_P2;PMS_P1;PMS_P2;Temp;Humidity;BMP_temperature;BMP_pressure;BME280_temperature;BME280_humidity;BME280_pressure;Samples;Min_cycle;Max_cycle;Signal;HPM_P1;HPM_P2
2021/09/04 00:00:26;;;;;;;8.07;5.03;;;15.20;84.30;;;;;;5041149;28;20029;-69
2021/09/04 00:02:51;;;;;;;10.45;5.78;;;15.10;84.50;;;;;;5053542;28;20441;-69
2021/09/04 00:05:17;;;;;;;6.63;5.18;;;15.10;84.40;;;;;;5052137;28;20041;-68
2021/09/04 00:07:42;;;;;;;8.85;5.32;;;15.10;84.50;;;;;;5053139;28;20445;-69
2021/09/04 00:10:09;;;;;;;7.30;5.07;;;15.10;84.40;;;;;;5034497;28;20024;-68
2021/09/04 00:12:35;;;;;;;9.93;5.75;;;15.10;84.50;;;;;;5053264;28;20044;-68
2021/09/04 00:15:01;;;;;;;7.43;5.63;;;15.10;84.50;;;;;;5051261;28;20025;-68
2021/09/04 00:17:26;;;;;;;7.93;5.70;;;15.10;84.40;;;;;;5029573;28;20492;-69
2021/09/04 00:19:52;;;;;;;11.40;5.72;;;15.10;84.50;;;;;;5052340;28;20029;-68
2021/09/04 00:22:18;;;;;;;8.70;5.32;;;15.00;84.60;;;;;;5053080;28;20017;-68
2021/09/04 00:24:44;;;;;;;8.05;5.18;;;15.00;84.70;;;;;;5050518;28;20032;-68
2021/09/04 00:27:09;;;;;;;11.88;5.38;;;15.00;84.60;;;;;;5035075;28;20116;-68
2021/09/04 00:29:35;;;;;;;6.13;5.00;;;14.90;84.70;;;;;;5052087;28;20036;-68
2021/09/04 00:32:02;;;;;;;7.35;5.80;;;14.90;84.70;;;;;;5055279;28;20557;-68
2021/09/04 00:34:27;;;;;;;9.50;5.30;;;14.90;85.10;;;;;;5051983;28;20401;-67
2021/09/04 00:36:53;;;;;;;9.05;5.20;;;14.90;84.80;;;;;;5051483;28;20025;-68
2021/09/04 00:39:19;;;;;;;7.38;5.13;;;14.80;84.80;;;;;;5052229;28;20131;-69
2021/09/04 00:41:45;;;;;;;10.38;5.38;;;14.80;84.90;;;;;;5052864;28;20021;-68
2021/09/04 00:44:19;;;;;;;8.32;5.18;;;14.80;84.80;;;;;;5051850;28;20435;-68
2021/09/04 00:46:44;;;;;;;6.95;5.10;;;14.70;85.10;;;;;;5033047;28;20033;-68
2021/09/04 00:49:11;;;;;;;13.95;5.32;;;14.70;85.10;;;;;;5051650;28;20492;-68
2021/09/04 00:51:36;;;;;;;9.60;5.65;;;14.60;85.10;;;;;;5034333;28;20021;-69
2021/09/04 00:54:03;;;;;;;7.63;5.35;;;14.60;85.00;;;;;;5033957;28;20515;-68
2021/09/04 00:56:28;;;;;;;8.20;5.40;;;14.50;85.10;;;;;;5032442;28;20424;-68
2021/09/04 00:58:54;;;;;;;7.25;5.18;;;14.50;85.20;;;;;;5052365;28;20033;-68
2021/09/04 01:01:20;;;;;;;11.85;5.68;;;14.40;85.30;;;;;;5033413;28;20033;-69
2021/09/04 01:03:46;;;;;;;7.13;5.28;;;14.30;85.50;;;;;;5051556;28;20681;-69
2021/09/04 01:06:15;;;;;;;6.47;5.18;;;14.20;85.60;;;;;;5041114;28;20138;-68
2021/09/04 01:08:42;;;;;;;5.93;4.80;;;14.10;85.80;;;;;;5051218;28;20028;-69
2021/09/04 01:11:09;;;;;;;6.65;4.88;;;14.10;86.00;;;;;;5051263;28;20044;-69
2021/09/04 01:13:36;;;;;;;7.32;4.75;;;14.10;86.10;;;;;;5042051;28;20033;-67
2021/09/04 01:16:02;;;;;;;7.40;4.78;;;14.10;86.00;;;;;;5047680;28;20021;-68
2021/09/04 01:18:27;;;;;;;8.38;5.60;;;14.10;86.10;;;;;;5037139;28;20151;-68
2021/09/04 01:20:53;;;;;;;7.13;5.13;;;14.00;86.00;;;;;;5050747;28;20102;-68
2021/09/04 01:23:19;;;;;;;8.02;5.20;;;14.00;86.20;;;;;;5051669;28;20025;-68
2021/09/04 01:25:51;;;;;;;8.95;5.15;;;14.00;86.10;;;;;;5047939;28;20036;-69
2021/09/04 01:28:16;;;;;;;;;;;14.00;86.30;;;;;;5050309;28;20040;-68
2021/09/04 01:30:42;;;;;;;6.03;4.40;;;13.90;86.00;;;;;;5032104;28;19920;-68
2021/09/04 01:33:10;;;;;;;8.45;4.90;;;13.90;86.10;;;;;;5033271;28;20060;-68
2021/09/04 01:35:35;;;;;;;7.22;5.03;;;13.80;86.30;;;;;;5050421;28;20028;-68
2021/09/04 01:38:01;;;;;;;6.53;5.10;;;13.90;86.30;;;;;;5050790;28;20096;-68
2021/09/04 01:40:26;;;;;;;9.02;5.35;;;13.80;86.20;;;;;;5051441;28;20020;-68
2021/09/04 01:42:52;;;;;;;7.32;5.20;;;13.80;86.30;;;;;;5032764;28;20044;-68
2021/09/04 01:45:18;;;;;;;10.15;5.28;;;13.80;86.40;;;;;;5049449;28;20036;-69
2021/09/04 01:47:44;;;;;;;6.47;4.90;;;13.70;86.50;;;;;;5050468;28;20402;-68
2021/09/04 01:50:13;;;;;;;6.25;4.75;;;13.70;86.70;;;;;;5033378;28;20033;-68
2021/09/04 01:52:41;;;;;;;5.38;4.22;;;13.60;86.60;;;;;;5050805;28;20055;-68
2021/09/04 01:55:08;;;;;;;5.72;4.57;;;13.70;86.80;;;;;;5047040;28;20017;-68
2021/09/04 01:57:34;;;;;;;7.13;4.55;;;13.60;86.70;;;;;;5031808;28;20393;-68
2021/09/04 02:00:00;;;;;;;7.45;4.28;;;13.60;86.80;;;;;;5051004;28;20032;-68
2021/09/04 02:02:25;;;;;;;5.65;4.32;;;13.60;86.80;;;;;;5049530;28;20021;-68
2021/09/04 02:04:51;;;;;;;6.43;4.40;;;13.60;86.90;;;;;;5049306;28;20025;-69
2021/09/04 02:07:16;;;;;;;5.28;4.18;;;13.60;86.80;;;;;;5051041;28;20029;-68
2021/09/04 02:09:42;;;;;;;9.30;4.20;;;13.50;86.80;;;;;;5050717;28;20389;-68
2021/09/04 02:12:08;;;;;;;5.40;3.97;;;13.50;86.80;;;;;;5050064;28;20028;-68
2021/09/04 02:14:33;;;;;;;7.88;5.13;;;13.50;86.90;;;;;;5050360;28;20037;-68
2021/09/04 02:16:59;;;;;;;6.82;4.18;;;13.50;86.80;;;;;;5033961;28;20039;-68
2021/09/04 02:19:25;;;;;;;4.93;4.20;;;13.50;87.10;;;;;;5032709;28;20021;-68
2021/09/04 02:21:50;;;;;;;4.90;4.03;;;13.50;87.20;;;;;;5050231;28;20100;-68
2021/09/04 02:24:17;;;;;;;5.60;4.40;;;13.40;87.00;;;;;;5032782;28;20112;-68
2021/09/04 02:26:42;;;;;;;6.88;4.32;;;13.40;87.60;;;;;;5048700;28;20082;-68
2021/09/04 02:29:08;;;;;;;7.25;4.00;;;13.50;87.10;;;;;;5050121;28;20472;-69
2021/09/04 02:31:34;;;;;;;5.97;3.80;;;13.40;87.10;;;;;;5049264;28;20555;-69
2021/09/04 02:33:59;;;;;;;5.45;4.30;;;13.40;87.00;;;;;;5049624;28;20033;-68
2021/09/04 02:36:25;;;;;;;4.47;4.00;;;13.40;86.90;;;;;;5049680;28;20024;-68
2021/09/04 02:38:51;;;;;;;6.93;4.22;;;13.40;87.10;;;;;;5049853;28;20029;-68
2021/09/04 02:41:17;;;;;;;4.93;3.70;;;13.40;87.20;;;;;;5032492;28;20122;-68
2021/09/04 02:43:43;;;;;;;4.25;3.83;;;13.40;87.20;;;;;;5049201;28;20144;-68
2021/09/04 02:46:09;;;;;;;7.00;4.22;;;13.40;87.10;;;;;;5037330;28;20448;-68
2021/09/04 02:48:35;;;;;;;5.20;4.13;;;13.30;87.00;;;;;;5045438;28;20078;-68
2021/09/04 02:51:01;;;;;;;5.85;4.07;;;13.30;87.30;;;;;;5049832;28;20036;-68
2021/09/04 02:53:27;;;;;;;7.00;4.63;;;13.20;87.30;;;;;;5046601;28;20449;-68
2021/09/04 02:55:52;;;;;;;5.43;4.40;;;13.20;87.40;;;;;;5048386;28;20032;-68
2021/09/04 02:58:18;;;;;;;5.88;4.30;;;13.20;87.50;;;;;;5031721;28;20028;-68
2021/09/04 03:00:43;;;;;;;6.00;4.05;;;13.20;87.40;;;;;;5049781;28;20051;-68
2021/09/04 03:03:09;;;;;;;4.93;4.07;;;13.20;87.30;;;;;;5049740;28;20021;-68
2021/09/04 03:05:35;;;;;;;4.90;4.20;;;13.10;87.30;;;;;;5048392;28;20025;-69
2021/09/04 03:08:02;;;;;;;5.20;4.00;;;13.10;87.20;;;;;;5031873;28;20032;-69
2021/09/04 03:10:28;;;;;;;5.00;3.85;;;13.00;87.30;;;;;;5049380;28;20113;-67
2021/09/04 03:12:53;;;;;;;4.80;4.05;;;13.00;87.50;;;;;;5030622;28;20077;-68
2021/09/04 03:15:19;;;;;;;6.22;4.30;;;12.90;87.50;;;;;;5031053;28;20029;-68
2021/09/04 03:17:45;;;;;;;5.43;4.18;;;12.90;87.60;;;;;;5047525;28;20025;-68
2021/09/04 03:20:11;;;;;;;8.77;4.68;;;12.80;87.60;;;;;;5049287;28;20029;-68
2021/09/04 03:22:37;;;;;;;7.68;4.28;;;12.70;87.70;;;;;;5048442;28;20025;-69
2021/09/04 03:25:04;;;;;;;4.70;4.03;;;12.70;87.80;;;;;;5047876;28;20035;-68
2021/09/04 03:27:30;;;;;;;4.88;4.05;;;12.60;87.90;;;;;;5049673;28;20025;-69
2021/09/04 03:29:56;;;;;;;5.93;4.10;;;12.60;88.00;;;;;;5049154;28;20120;-68
2021/09/04 03:32:22;;;;;;;6.22;4.40;;;12.50;88.20;;;;;;5049028;28;20048;-68
2021/09/04 03:34:47;;;;;;;7.47;4.53;;;12.50;88.20;;;;;;5047272;28;20028;-68
2021/09/04 03:37:13;;;;;;;5.85;4.18;;;12.50;88.30;;;;;;5049544;28;20523;-68
2021/09/04 03:39:39;;;;;;;5.20;4.35;;;12.40;88.30;;;;;;5048063;28;20056;-68
2021/09/04 03:42:04;;;;;;;5.90;4.10;;;12.40;88.40;;;;;;5053569;28;20028;-69
2021/09/04 03:44:31;;;;;;;5.72;4.05;;;12.40;88.50;;;;;;5051825;28;20108;-68
2021/09/04 03:46:56;;;;;;;5.80;4.30;;;12.40;88.60;;;;;;5052911;28;20029;-68
2021/09/04 03:49:22;;;;;;;7.20;4.35;;;12.40;88.60;;;;;;5052941;28;20035;-68
2021/09/04 03:51:48;;;;;;;7.65;4.55;;;12.30;88.50;;;;;;5052816;28;20036;-68
2021/09/04 03:54:13;;;;;;;5.10;4.20;;;12.30;88.50;;;;;;5049680;28;20055;-68
2021/09/04 03:56:39;;;;;;;8.48;3.88;;;12.30;88.60;;;;;;5051986;28;20381;-68
2021/09/04 03:59:05;;;;;;;6.00;4.70;;;12.20;88.70;;;;;;5048487;28;20416;-67
2021/09/04 04:01:30;;;;;;;4.90;3.80;;;12.20;88.90;;;;;;5052655;28;20103;-68
2021/09/04 04:03:56;;;;;;;5.07;4.10;;;12.20;89.40;;;;;;5033922;28;20017;-68
2021/09/04 04:06:22;;;;;;;8.18;4.10;;;12.20;88.80;;;;;;5051237;28;20070;-68
2021/09/04 04:08:47;;;;;;;5.57;4.30;;;12.20;88.90;;;;;;5053135;28;20021;-68
2021/09/04 04:11:13;;;;;;;6.00;3.90;;;12.20;89.00;;;;;;5052896;28;20033;-68
2021/09/04 04:13:39;;;;;;;7.43;4.30;;;12.20;89.10;;;;;;5053067;28;20021;-71
2021/09/04 04:16:05;;;;;;;5.40;4.03;;;12.20;89.20;;;;;;5050172;28;20373;-68
2021/09/04 04:18:33;;;;;;;5.43;3.90;;;12.20;89.30;;;;;;5051805;28;20074;-68
2021/09/04 04:20:59;;;;;;;5.05;4.05;;;12.20;89.30;;;;;;5034138;28;20033;-68
2021/09/04 04:23:25;;;;;;;6.35;4.13;;;12.20;89.30;;;;;;5051757;28;20033;-68
2021/09/04 04:25:52;;;;;;;4.95;3.75;;;12.20;89.30;;;;;;5050347;28;20029;-68
2021/09/04 04:28:19;;;;;;;5.43;4.25;;;12.20;89.30;;;;;;5053066;28;20388;-68
2021/09/04 04:33:13;;;;;;;4.25;3.42;;;12.20;89.40;;;;;;5015212;28;20049;-65
2021/09/04 04:35:39;;;;;;;5.05;4.03;;;12.20;89.40;;;;;;5011817;28;20046;-65
2021/09/04 04:38:05;;;;;;;6.18;3.90;;;12.10;89.30;;;;;;5011911;28;20363;-65
2021/09/04 04:40:30;;;;;;;5.20;3.72;;;12.10;89.30;;;;;;5013609;28;20025;-65
2021/09/04 04:42:56;;;;;;;4.10;3.50;;;12.20;89.40;;;;;;5015208;28;20073;-65
2021/09/04 04:45:22;;;;;;;4.70;4.00;;;12.10;89.30;;;;;;5011460;28;20033;-65
2021/09/04 04:47:48;;;;;;;5.70;4.10;;;12.10;89.20;;;;;;5010526;28;20156;-65
2021/09/04 04:50:15;;;;;;;6.93;4.00;;;12.10;89.20;;;;;;5009009;28;20091;-65
2021/09/04 04:52:41;;;;;;;4.93;3.90;;;12.10;89.20;;;;;;5012295;28;20044;-65
2021/09/04 04:55:08;;;;;;;5.10;4.07;;;12.10;89.20;;;;;;5012030;28;20068;-65
2021/09/04 04:57:35;;;;;;;4.68;3.55;;;12.10;89.30;;;;;;5012247;28;20117;-65
2021/09/04 05:00:00;;;;;;;6.43;3.60;;;12.10;89.40;;;;;;5010697;28;20112;-65
2021/09/04 05:02:26;;;;;;;4.65;3.65;;;12.10;89.30;;;;;;5008549;28;20125;-65
2021/09/04 05:04:52;;;;;;;5.10;3.95;;;12.10;89.40;;;;;;5010629;28;20025;-65
2021/09/04 05:07:17;;;;;;;4.55;3.63;;;12.10;89.30;;;;;;5019508;28;20505;-65
2021/09/04 05:09:43;;;;;;;5.47;3.78;;;12.10;89.30;;;;;;5013945;28;20026;-65
2021/09/04 05:12:09;;;;;;;4.25;3.83;;;12.10;89.20;;;;;;5012605;28;20030;-65
2021/09/04 05:14:34;;;;;;;8.93;4.38;;;12.10;89.30;;;;;;5003674;28;20042;-65
2021/09/04 05:17:00;;;;;;;7.47;4.20;;;12.10;89.30;;;;;;5009764;28;20034;-65
2021/09/04 05:19:25;;;;;;;5.68;4.10;;;12.10;89.40;;;;;;5014893;28;20132;-65
2021/09/04 05:21:51;;;;;;;5.25;4.05;;;12.10;89.30;;;;;;5011619;28;20036;-65
2021/09/04 05:24:16;;;;;;;5.53;3.97;;;12.00;89.40;;;;;;5009953;28;20022;-65
2021/09/04 05:26:42;;;;;;;5.65;3.92;;;12.00;89.40;;;;;;5007842;28;20037;-65
2021/09/04 05:29:08;;;;;;;6.50;4.20;;;12.10;89.70;;;;;;5011411;28;20339;-65
2021/09/04 05:31:33;;;;;;;5.47;3.90;;;12.10;89.80;;;;;;5011000;28;20030;-65
2021/09/04 05:33:59;;;;;;;5.47;4.38;;;12.10;89.80;;;;;;5011699;28;20042;-65
2021/09/04 05:36:25;;;;;;;5.07;3.67;;;12.10;89.90;;;;;;5023308;28;20136;-65
2021/09/04 05:38:50;;;;;;;7.65;4.65;;;12.10;89.90;;;;;;5015575;28;20018;-65
2021/09/04 05:41:16;;;;;;;5.72;4.10;;;12.10;90.00;;;;;;5011688;28;20052;-65
2021/09/04 05:43:41;;;;;;;7.93;4.47;;;12.00;90.00;;;;;;5011257;28;20450;-65
2021/09/04 05:46:07;;;;;;;5.30;4.13;;;12.00;90.10;;;;;;5013987;28;20097;-65
2021/09/04 05:48:32;;;;;;;6.28;3.92;;;12.00;90.20;;;;;;5010863;28;20409;-65
2021/09/04 05:50:58;;;;;;;5.45;4.07;;;12.00;90.20;;;;;;5011699;28;20034;-65
2021/09/04 05:53:24;;;;;;;6.25;3.65;;;12.00;90.20;;;;;;5010600;28;20032;-65
2021/09/04 05:55:49;;;;;;;6.32;4.18;;;12.10;90.30;;;;;;5009518;28;20034;-65
2021/09/04 05:58:15;;;;;;;7.50;4.72;;;12.10;90.30;;;;;;5011452;28;20371;-65
2021/09/04 06:00:41;;;;;;;7.50;4.47;;;12.10;90.30;;;;;;5009479;28;20018;-65
2021/09/04 06:03:06;;;;;;;4.93;4.22;;;12.10;90.40;;;;;;5009813;28;20113;-65
2021/09/04 06:05:32;;;;;;;5.43;4.10;;;12.10;90.50;;;;;;5005848;28;20024;-65
2021/09/04 06:07:58;;;;;;;5.85;4.22;;;12.20;90.50;;;;;;5009390;28;20406;-67
2021/09/04 06:10:24;;;;;;;6.80;5.15;;;12.20;90.50;;;;;;5010200;28;20109;-67
2021/09/04 06:12:49;;;;;;;7.35;5.30;;;12.20;90.50;;;;;;5007491;28;20101;-67
2021/09/04 06:15:15;;;;;;;8.20;5.40;;;12.20;90.50;;;;;;5008736;28;20026;-66
2021/09/04 06:17:41;;;;;;;6.68;5.22;;;12.30;90.60;;;;;;5007692;28;20025;-67
2021/09/04 06:20:08;;;;;;;8.63;5.15;;;12.30;90.70;;;;;;5012764;28;20030;-66
2021/09/04 06:22:34;;;;;;;7.43;5.57;;;12.30;90.70;;;;;;5006785;28;20030;-65
2021/09/04 06:24:59;;;;;;;8.95;6.47;;;12.40;90.80;;;;;;5001174;28;20038;-65
2021/09/04 06:27:25;;;;;;;6.53;5.43;;;12.40;90.80;;;;;;5008378;28;20741;-65
2021/09/04 06:29:51;;;;;;;9.10;5.80;;;12.50;90.80;;;;;;5006875;28;20033;-66
2021/09/04 06:32:16;;;;;;;7.50;5.68;;;12.60;90.90;;;;;;5008147;28;20038;-67
2021/09/04 06:34:42;;;;;;;8.25;6.22;;;12.60;91.00;;;;;;5011134;28;20571;-66
2021/09/04 06:37:08;;;;;;;9.52;6.55;;;12.70;91.00;;;;;;5011681;28;20037;-67
2021/09/04 06:39:34;;;;;;;10.38;6.60;;;12.80;91.10;;;;;;5011664;28;20046;-66
2021/09/04 06:41:59;;;;;;;7.90;6.03;;;12.80;91.10;;;;;;5002603;28;20394;-67
2021/09/04 06:44:25;;;;;;;7.05;5.70;;;12.90;91.20;;;;;;5012077;28;20022;-66
2021/09/04 06:46:51;;;;;;;8.35;6.50;;;13.00;91.20;;;;;;5011735;28;20113;-67
2021/09/04 06:49:17;;;;;;;8.73;6.20;;;13.00;91.20;;;;;;5008386;28;20050;-68
2021/09/04 06:51:42;;;;;;;9.55;7.57;;;13.10;91.40;;;;;;5008351;28;20033;-67
2021/09/04 06:54:08;;;;;;;9.80;6.72;;;13.10;91.20;;;;;;5007844;28;20106;-66
2021/09/04 06:56:34;;;;;;;9.73;7.50;;;13.20;91.30;;;;;;5010011;28;20030;-67
2021/09/04 06:58:59;;;;;;;11.40;7.43;;;13.30;91.30;;;;;;5009099;28;20125;-66
2021/09/04 07:01:25;;;;;;;9.77;6.60;;;13.30;91.40;;;;;;5007549;28;20018;-66
2021/09/04 07:03:51;;;;;;;7.72;6.00;;;13.40;91.40;;;;;;5008874;28;20429;-66
2021/09/04 07:06:16;;;;;;;9.13;6.75;;;13.50;91.50;;;;;;5008561;28;20117;-68
2021/09/04 07:08:42;;;;;;;7.13;6.00;;;13.50;91.50;;;;;;5008406;28;20030;-66
2021/09/04 07:11:08;;;;;;;6.85;5.63;;;13.60;91.60;;;;;;5000082;28;20045;-66
2021/09/04 07:13:33;;;;;;;6.63;5.53;;;13.70;91.70;;;;;;5003582;28;20121;-66
2021/09/04 07:15:59;;;;;;;9.55;6.18;;;13.70;91.70;;;;;;5009210;28;20033;-66
2021/09/04 07:18:24;;;;;;;8.98;5.90;;;13.80;91.70;;;;;;5007944;28;20022;-66
2021/09/04 07:20:51;;;;;;;10.52;6.78;;;13.90;91.70;;;;;;5003585;28;20026;-66
2021/09/04 07:23:18;;;;;;;9.38;6.22;;;14.10;91.80;;;;;;5009840;28;20032;-66
2021/09/04 07:25:44;;;;;;;13.50;6.38;;;14.30;91.70;;;;;;5007954;28;20030;-66
2021/09/04 07:28:10;;;;;;;9.55;5.53;;;14.80;91.50;;;;;;5002417;28;20026;-66
2021/09/04 07:30:36;;;;;;;8.10;5.20;;;15.50;91.00;;;;;;5009658;28;20030;-67
2021/09/04 07:33:02;;;;;;;7.57;4.93;;;16.10;90.50;;;;;;5009184;28;20033;-66
2021/09/04 07:35:27;;;;;;;9.20;4.68;;;16.70;89.70;;;;;;5008069;28;20529;-66
2021/09/04 07:37:53;;;;;;;5.80;4.75;;;17.30;88.50;;;;;;5005032;28;20050;-66
2021/09/04 07:40:19;;;;;;;5.10;4.47;;;17.80;87.60;;;;;;5005607;28;20026;-67
2021/09/04 07:42:45;;;;;;;5.00;4.07;;;18.30;86.50;;;;;;5007777;28;20131;-66
2021/09/04 07:45:11;;;;;;;8.85;4.10;;;18.60;85.80;;;;;;5007865;28;20033;-65
2021/09/04 07:47:37;;;;;;;9.30;4.72;;;18.50;86.20;;;;;;5008726;28;20695;-65
2021/09/04 07:50:03;;;;;;;5.60;4.53;;;18.90;86.10;;;;;;5009098;28;20021;-65
2021/09/04 07:52:28;;;;;;;8.35;3.90;;;19.60;84.40;;;;;;5008634;28;20513;-66
2021/09/04 07:54:54;;;;;;;7.32;5.78;;;20.40;82.80;;;;;;5005017;28;20034;-66
2021/09/04 07:57:19;;;;;;;7.90;3.80;;;21.00;81.30;;;;;;5008538;28;20046;-66
2021/09/04 07:59:45;;;;;;;7.43;3.58;;;21.60;79.60;;;;;;5008196;28;20030;-65
2021/09/04 08:02:11;;;;;;;8.63;4.70;;;22.20;78.40;;;;;;5007350;28;20022;-66
2021/09/04 08:04:36;;;;;;;4.25;3.42;;;22.70;77.40;;;;;;5012640;28;20047;-66
2021/09/04 08:07:02;;;;;;;5.20;3.50;;;23.30;76.10;;;;;;5010162;28;20077;-68
2021/09/04 08:09:28;;;;;;;4.15;3.35;;;23.80;75.00;;;;;;5009548;28;20530;-66
2021/09/04 08:11:53;;;;;;;4.35;3.58;;;24.30;74.10;;;;;;5007659;28;20105;-65
2021/09/04 08:14:19;;;;;;;14.68;6.68;;;24.80;73.30;;;;;;5008764;28;20037;-67
2021/09/04 08:16:45;;;;;;;13.82;5.90;;;25.20;72.20;;;;;;5004497;28;20061;-67
2021/09/04 08:19:10;;;;;;;4.55;3.65;;;25.60;71.20;;;;;;5009258;28;20049;-66
2021/09/04 08:21:37;;;;;;;3.60;3.10;;;26.00;70.30;;;;;;5007544;28;20045;-67
2021/09/04 08:24:02;;;;;;;5.78;3.30;;;26.20;69.00;;;;;;5009909;28;20026;-66
2021/09/04 08:26:28;;;;;;;339.33;148.00;;;26.50;67.60;;;;;;5005117;28;20500;-66
2021/09/04 08:28:55;;;;;;;55.20;27.75;;;26.60;66.90;;;;;;5005401;28;20038;-65
2021/09/04 08:31:21;;;;;;;10.43;5.72;;;26.60;66.60;;;;;;5010817;28;20030;-65
2021/09/04 08:33:46;;;;;;;9.25;6.40;;;26.60;66.50;;;;;;5008660;28;20042;-66
2021/09/04 08:36:12;;;;;;;178.57;80.65;;;26.50;66.70;;;;;;5011391;28;20029;-67
2021/09/04 08:38:37;;;;;;;150.90;71.60;;;26.30;66.70;;;;;;5011756;28;20026;-66
2021/09/04 08:41:04;;;;;;;25.00;13.70;;;26.10;67.50;;;;;;5011953;28;20026;-66
2021/09/04 08:43:30;;;;;;;7.65;5.22;;;26.00;68.40;;;;;;5010061;28;20084;-69
2021/09/04 08:45:55;;;;;;;3.97;3.40;;;26.00;68.40;;;;;;5007995;28;20029;-69
2021/09/04 08:48:22;;;;;;;5.80;3.65;;;25.90;68.10;;;;;;5007981;28;20045;-68
2021/09/04 08:50:47;;;;;;;4.68;3.47;;;26.00;68.30;;;;;;5012104;28;20065;-69
2021/09/04 08:53:13;;;;;;;6.97;2.95;;;26.10;67.70;;;;;;5006081;28;20049;-69
2021/09/04 08:55:40;;;;;;;5.07;2.85;;;26.00;67.50;;;;;;5012223;28;20072;-68
2021/09/04 08:58:05;;;;;;;4.50;3.10;;;26.10;67.70;;;;;;5013188;28;20037;-69
2021/09/04 09:00:40;;;;;;;8.20;3.38;;;26.10;66.90;;;;;;5008171;28;20029;-69
2021/09/04 09:03:18;;;;;;;5.38;3.15;;;26.10;66.10;;;;;;5009281;28;20029;-69
2021/09/04 09:05:44;;;;;;;3.47;2.88;;;26.10;65.80;;;;;;5011737;28;20026;-68
2021/09/04 09:08:21;;;;;;;4.97;2.95;;;26.10;65.20;;;;;;4997596;28;20034;-69
2021/09/04 09:10:46;;;;;;;4.22;2.53;;;26.00;64.70;;;;;;5011920;28;20418;-69
2021/09/04 09:13:19;;;;;;;7.07;3.30;;;26.10;65.70;;;;;;5013123;28;20079;-69
2021/09/04 09:15:46;;;;;;;4.50;2.88;;;26.10;65.20;;;;;;5009546;28;20022;-69
2021/09/04 09:18:14;;;;;;;5.35;3.20;;;26.10;64.40;;;;;;5011700;28;20069;-68
2021/09/04 09:20:42;;;;;;;3.20;2.90;;;26.10;63.90;;;;;;5012985;28;20109;-70
2021/09/04 09:23:16;;;;;;;5.53;2.75;;;26.10;64.00;;;;;;5012955;28;20026;-67
2021/09/04 09:25:43;;;;;;;4.82;3.08;;;26.20;63.90;;;;;;5011417;28;20037;-67
2021/09/04 09:28:15;;;;;;;4.15;3.10;;;26.30;63.60;;;;;;5001159;28;20064;-67
2021/09/04 09:30:48;;;;;;;;;;;26.30;62.90;;;;;;5012650;28;20034;-67
2021/09/04 09:33:15;;;;;;;3.95;3.20;;;26.30;64.80;;;;;;5008183;28;19953;-68
2021/09/04 09:35:44;;;;;;;3.35;3.03;;;26.30;63.70;;;;;;5010519;28;20030;-67
2021/09/04 09:38:16;;;;;;;3.22;2.92;;;26.30;63.10;;;;;;5012150;28;20132;-68
2021/09/04 09:40:42;;;;;;;5.10;3.33;;;26.30;62.30;;;;;;5011360;28;20033;-68
2021/09/04 09:43:22;;;;;;;3.58;2.63;;;26.30;61.90;;;;;;5011167;28;20402;-66
2021/09/04 09:45:56;;;;;;;4.32;2.90;;;26.30;60.60;;;;;;5002059;28;20030;-66
2021/09/04 09:48:36;;;;;;;4.40;3.00;;;26.30;60.10;;;;;;5005680;28;20041;-66
2021/09/04 09:51:07;;;;;;;3.25;2.67;;;26.30;60.20;;;;;;5011421;28;20030;-67
2021/09/04 09:53:32;;;;;;;5.05;3.08;;;26.40;60.40;;;;;;5009318;28;20081;-66
2021/09/04 09:55:59;;;;;;;4.75;2.88;;;26.40;60.50;;;;;;5010522;28;20537;-66
2021/09/04 09:58:26;;;;;;;5.68;2.83;;;26.50;59.50;;;;;;5012001;28;20034;-67
2021/09/04 10:00:55;;;;;;;3.35;2.72;;;26.50;59.30;;;;;;5011493;28;20030;-66
2021/09/04 10:03:23;;;;;;;8.20;3.15;;;26.50;59.20;;;;;;4998973;28;20161;-67
2021/09/04 10:05:50;;;;;;;3.63;2.67;;;26.50;58.80;;;;;;5008934;28;20040;-67
2021/09/04 10:08:17;;;;;;;4.80;2.90;;;26.50;58.60;;;;;;5011388;28;20030;-67
2021/09/04 10:10:43;;;;;;;2.92;2.63;;;26.60;58.60;;;;;;5011555;28;20505;-66
2021/09/04 10:13:13;;;;;;;4.00;2.75;;;26.60;58.40;;;;;;5011386;28;20033;-67
2021/09/04 10:15:39;;;;;;;7.20;3.10;;;26.70;58.00;;;;;;5008790;28;20025;-67
2021/09/04 10:18:09;;;;;;;4.22;3.10;;;26.70;57.80;;;;;;5007283;28;20022;-68
2021/09/04 10:20:36;;;;;;;6.72;2.70;;;26.60;56.60;;;;;;5011211;28;20370;-67
2021/09/04 10:23:14;;;;;;;3.65;2.80;;;26.50;57.50;;;;;;5011657;28;20363;-68
2021/09/04 10:25:39;;;;;;;3.22;2.90;;;26.60;57.20;;;;;;5010768;28;20080;-66
2021/09/04 10:28:05;;;;;;;6.20;2.83;;;26.70;57.00;;;;;;5011143;28;20486;-68
2021/09/04 10:30:38;;;;;;;5.75;3.10;;;26.70;56.70;;;;;;5027157;23;20025;-70
2021/09/04 10:33:16;;;;;;;2.90;2.58;;;26.70;56.00;;;;;;5028848;28;20088;-71
2021/09/04 10:35:45;;;;;;;4.55;3.60;;;26.70;56.00;;;;;;5024568;28;20048;-71
2021/09/04 10:38:26;;;;;;;6.05;2.90;;;26.70;56.50;;;;;;5018248;28;20105;-72
2021/09/04 10:41:13;;;;;;;3.78;2.90;;;26.70;56.00;;;;;;5010195;28;20022;-71
2021/09/04 10:43:44;;;;;;;2.72;2.50;;;26.80;55.90;;;;;;5009074;28;20493;-72
2021/09/04 10:46:15;;;;;;;3.10;2.80;;;26.80;55.20;;;;;;5008666;28;20436;-70
2021/09/04 10:48:42;;;;;;;6.63;3.78;;;26.80;55.40;;;;;;5008439;28;20113;-70
2021/09/04 10:51:10;;;;;;;2.78;2.47;;;26.80;55.60;;;;;;5010222;28;20121;-70
2021/09/04 10:53:51;;;;;;;13.65;7.85;;;26.70;54.90;;;;;;5009691;28;20030;-69
2021/09/04 10:56:25;;;;;;;3.28;2.90;;;26.60;54.70;;;;;;5002958;28;20053;-72
2021/09/04 10:58:52;;;;;;;2.60;2.40;;;26.60;54.60;;;;;;5010358;28;20037;-69
2021/09/04 11:01:25;;;;;;;3.30;2.65;;;26.60;54.70;;;;;;5008156;28;20030;-69
2021/09/04 11:03:55;;;;;;;2.97;2.50;;;26.60;54.80;;;;;;5018602;28;20022;-69
2021/09/04 11:06:23;;;;;;;2.55;2.35;;;26.60;54.20;;;;;;5008415;28;20030;-69
2021/09/04 11:08:50;;;;;;;3.60;2.78;;;26.60;54.10;;;;;;5007472;28;20030;-70
2021/09/04 11:11:26;;;;;;;3.03;2.50;;;26.60;54.30;;;;;;5009741;28;20022;-70
2021/09/04 11:13:59;;;;;;;4.78;2.42;;;26.70;54.30;;;;;;5009244;28;20018;-72
2021/09/04 11:16:42;;;;;;;3.22;2.67;;;26.70;53.90;;;;;;5002904;28;20030;-71
2021/09/04 11:19:13;;;;;;;3.33;2.75;;;26.80;54.10;;;;;;5009334;28;20032;-72
2021/09/04 11:22:10;;;;;;;5.65;3.72;;;26.80;53.60;;;;;;5009208;28;20497;-70
2021/09/04 11:24:38;;;;;;;7.18;3.17;;;26.80;53.30;;;;;;5002987;28;20385;-69
2021/09/04 11:27:24;;;;;;;3.80;2.95;;;26.70;53.60;;;;;;5007738;28;20498;-70
2021/09/04 11:29:51;;;;;;;4.32;2.83;;;26.70;53.50;;;;;;5005551;28;20104;-70
2021/09/04 11:32:23;;;;;;;6.60;4.63;;;26.80;53.20;;;;;;5006174;28;20041;-70
2021/09/04 11:34:58;;;;;;;4.88;3.65;;;26.70;52.90;;;;;;4993514;28;20096;-68
2021/09/04 11:37:35;;;;;;;2.85;2.60;;;26.70;52.50;;;;;;4994675;28;20034;-72
2021/09/04 11:40:14;;;;;;;3.67;2.65;;;26.70;52.50;;;;;;5004770;28;20030;-71
2021/09/04 11:42:46;;;;;;;6.32;2.42;;;26.70;52.60;;;;;;5007465;28;20030;-71
2021/09/04 11:45:17;;;;;;;4.40;2.63;;;26.70;52.20;;;;;;5008716;28;20056;-71
2021/09/04 11:47:45;;;;;;;3.13;2.40;;;26.70;52.00;;;;;;5010392;28;20034;-71
2021/09/04 11:50:24;;;;;;;3.90;3.28;;;26.70;52.10;;;;;;5010563;28;20470;-71
2021/09/04 11:52:51;;;;;;;5.32;2.53;;;26.70;51.70;;;;;;5009918;28;20057;-71
2021/09/04 11:55:20;;;;;;;3.22;2.40;;;26.70;51.80;;;;;;5001620;28;20483;-70
2021/09/04 11:57:48;;;;;;;4.20;2.75;;;26.70;51.40;;;;;;5008102;28;20084;-70
2021/09/04 12:00:18;;;;;;;3.03;2.63;;;26.70;51.40;;;;;;5009284;28;20088;-70
2021/09/04 12:02:50;;;;;;;2.90;2.50;;;26.70;51.30;;;;;;5010513;28;20022;-71
2021/09/04 12:05:19;;;;;;;3.00;2.22;;;26.70;51.40;;;;;;5012917;28;20024;-73
2021/09/04 12:07:45;;;;;;;4.47;2.30;;;26.70;50.80;;;;;;4995732;28;20076;-69
2021/09/04 12:10:13;;;;;;;3.20;2.53;;;26.70;51.00;;;;;;5013271;28;20030;-69
2021/09/04 12:12:40;;;;;;;2.72;2.47;;;26.70;50.80;;;;;;5009250;28;20393;-70
2021/09/04 12:15:11;;;;;;;2.50;2.30;;;26.70;51.00;;;;;;5005046;28;20091;-68
2021/09/04 12:17:49;;;;;;;3.20;2.25;;;26.80;50.70;;;;;;5010192;28;20053;-70
2021/09/04 12:20:16;;;;;;;4.05;2.40;;;26.90;50.10;;;;;;5013655;28;20109;-71
2021/09/04 12:22:41;;;;;;;3.13;2.22;;;27.00;50.70;;;;;;5010805;28;20057;-71
2021/09/04 12:25:26;;;;;;;3.45;2.50;;;27.10;50.70;;;;;;4997231;28;20057;-71
2021/09/04 12:28:05;;;;;;;4.53;2.50;;;27.20;50.30;;;;;;5008917;28;20017;-71
2021/09/04 12:30:32;;;;;;;2.95;2.53;;;27.10;49.90;;;;;;5011975;28;20038;-71
2021/09/04 12:33:03;;;;;;;4.03;2.70;;;27.00;49.90;;;;;;5001599;28;20060;-70
2021/09/04 12:35:54;;;;;;;2.90;2.58;;;26.90;50.20;;;;;;5010470;28;20375;-71
2021/09/04 12:38:23;;;;;;;4.30;2.42;;;27.00;50.20;;;;;;5013367;28;20111;-71
2021/09/04 12:41:00;;;;;;;3.42;2.00;;;27.00;50.60;;;;;;5013234;28;20033;-71
2021/09/04 12:43:26;;;;;;;3.92;3.00;;;27.10;49.50;;;;;;4994815;28;20026;-71
2021/09/04 12:46:00;;;;;;;3.47;3.00;;;27.00;49.40;;;;;;4996589;28;20026;-71
2021/09/04 12:48:36;;;;;;;3.17;2.53;;;27.00;49.00;;;;;;5005451;28;20128;-71